sensor_id;sensor_type;location;lat;lon;timestamp;P1;durP1;ratioP1;P2;durP2;ratioP2
25637;SDS011;13496;51.040;13.680;2023-02-22T00:04:50;1.50;;;1.40;;
25637;SDS011;13496;51.040;13.680;2023-02-22T00:09:51;1.70;;;1.60;;
25637;SDS011;13496;51.040;13.680;2023-02-22T00:14:53;1.33;;;1.23;;
25637;SDS011;13496;51.040;13.680;2023-02-22T00:19:55;1.57;;;1.47;;
25637;SDS011;13496;51.040;13.680;2023-02-22T00:24:57;1.40;;;1.30;;
25637;SDS011;13496;51.040;13.680;2023-02-22T00:29:58;1.37;;;1.27;;
25637;SDS011;13496;51.040;13.680;2023-02-22T00:35:00;1.50;;;1.40;;
25637;SDS011;13496;51.040;13.680;2023-02-22T00:40:08;1.60;;;1.50;;
25637;SDS011;13496;51.040;13.680;2023-02-22T00:45:11;1.50;;;1.40;;
25637;SDS011;13496;51.040;13.680;2023-02-22T00:50:14;1.60;;;1.50;;
25637;SDS011;13496;51.040;13.680;2023-02-22T00:55:20;1.40;;;1.30;;
25637;SDS011;13496;51.040;13.680;2023-02-22T01:00:25;1.40;;;1.30;;
25637;SDS011;13496;51.040;13.680;2023-02-22T01:05:32;1.40;;;1.30;;
25637;SDS011;13496;51.040;13.680;2023-02-22T01:10:34;1.67;;;1.57;;
25637;SDS011;13496;51.040;13.680;2023-02-22T01:15:37;1.30;;;1.20;;
25637;SDS011;13496;51.040;13.680;2023-02-22T01:20:40;1.50;;;1.40;;
25637;SDS011;13496;51.040;13.680;2023-02-22T01:25:42;1.57;;;1.47;;
25637;SDS011;13496;51.040;13.680;2023-02-22T01:30:44;1.40;;;1.30;;
25637;SDS011;13496;51.040;13.680;2023-02-22T01:35:46;1.40;;;1.30;;
25637;SDS011;13496;51.040;13.680;2023-02-22T01:40:48;1.60;;;1.50;;
25637;SDS011;13496;51.040;13.680;2023-02-22T01:55:59;1.50;;;1.40;;
25637;SDS011;13496;51.040;13.680;2023-02-22T02:01:02;1.40;;;1.30;;
25637;SDS011;13496;51.040;13.680;2023-02-22T02:06:06;1.10;;;1.10;;
25637;SDS011;13496;51.040;13.680;2023-02-22T02:11:13;1.47;;;1.37;;
25637;SDS011;13496;51.040;13.680;2023-02-22T02:16:14;1.47;;;1.37;;
25637;SDS011;13496;51.040;13.680;2023-02-22T02:32:15;1.30;;;1.20;;
25637;SDS011;13496;51.040;13.680;2023-02-22T02:42:52;1.40;;;1.30;;
25637;SDS011;13496;51.040;13.680;2023-02-22T02:47:58;1.47;;;1.37;;
25637;SDS011;13496;51.040;13.680;2023-02-22T02:53:05;1.40;;;1.30;;
25637;SDS011;13496;51.040;13.680;2023-02-22T02:58:15;1.43;;;1.33;;
25637;SDS011;13496;51.040;13.680;2023-02-22T03:08:51;1.40;;;1.30;;
25637;SDS011;13496;51.040;13.680;2023-02-22T03:14:05;1.47;;;1.37;;
25637;SDS011;13496;51.040;13.680;2023-02-22T03:19:21;1.43;;;1.33;;
25637;SDS011;13496;51.040;13.680;2023-02-22T03:24:30;1.33;;;1.23;;
25637;SDS011;13496;51.040;13.680;2023-02-22T03:29:38;1.37;;;1.27;;
25637;SDS011;13496;51.040;13.680;2023-02-22T03:34:57;1.13;;;1.10;;
25637;SDS011;13496;51.040;13.680;2023-02-22T03:40:17;1.40;;;1.30;;
25637;SDS011;13496;51.040;13.680;2023-02-22T03:45:27;1.40;;;1.30;;
25637;SDS011;13496;51.040;13.680;2023-02-22T03:50:34;1.50;;;1.30;;
25637;SDS011;13496;51.040;13.680;2023-02-22T03:55:39;1.43;;;1.30;;
25637;SDS011;13496;51.040;13.680;2023-02-22T04:00:41;1.37;;;1.30;;
25637;SDS011;13496;51.040;13.680;2023-02-22T04:05:45;1.30;;;1.20;;
25637;SDS011;13496;51.040;13.680;2023-02-22T04:10:47;1.40;;;1.30;;
25637;SDS011;13496;51.040;13.680;2023-02-22T04:15:51;1.23;;;1.13;;
25637;SDS011;13496;51.040;13.680;2023-02-22T04:20:53;1.30;;;1.20;;
25637;SDS011;13496;51.040;13.680;2023-02-22T04:26:30;1.37;;;1.27;;
25637;SDS011;13496;51.040;13.680;2023-02-22T04:31:34;1.30;;;1.20;;
25637;SDS011;13496;51.040;13.680;2023-02-22T04:36:36;1.60;;;1.33;;
25637;SDS011;13496;51.040;13.680;2023-02-22T04:41:38;1.57;;;1.47;;
25637;SDS011;13496;51.040;13.680;2023-02-22T04:46:41;1.77;;;1.20;;
25637;SDS011;13496;51.040;13.680;2023-02-22T04:51:44;1.40;;;1.30;;
25637;SDS011;13496;51.040;13.680;2023-02-22T04:56:47;2.83;;;1.40;;
25637;SDS011;13496;51.040;13.680;2023-02-22T05:01:49;1.40;;;1.30;;
25637;SDS011;13496;51.040;13.680;2023-02-22T05:06:50;1.30;;;1.20;;
25637;SDS011;13496;51.040;13.680;2023-02-22T05:11:52;2.73;;;1.50;;
25637;SDS011;13496;51.040;13.680;2023-02-22T05:16:54;1.70;;;1.20;;
25637;SDS011;13496;51.040;13.680;2023-02-22T05:21:59;2.97;;;1.57;;
25637;SDS011;13496;51.040;13.680;2023-02-22T05:27:00;1.77;;;1.50;;
25637;SDS011;13496;51.040;13.680;2023-02-22T05:32:02;1.80;;;1.50;;
25637;SDS011;13496;51.040;13.680;2023-02-22T05:37:04;1.53;;;1.20;;
25637;SDS011;13496;51.040;13.680;2023-02-22T05:42:06;1.40;;;1.27;;
25637;SDS011;13496;51.040;13.680;2023-02-22T05:47:08;1.30;;;1.20;;
25637;SDS011;13496;51.040;13.680;2023-02-22T05:52:09;1.37;;;1.27;;
25637;SDS011;13496;51.040;13.680;2023-02-22T05:57:11;1.47;;;1.37;;
25637;SDS011;13496;51.040;13.680;2023-02-22T06:02:13;1.47;;;1.37;;
25637;SDS011;13496;51.040;13.680;2023-02-22T06:07:14;1.47;;;1.37;;
25637;SDS011;13496;51.040;13.680;2023-02-22T06:12:16;1.60;;;1.50;;
25637;SDS011;13496;51.040;13.680;2023-02-22T06:17:18;1.20;;;1.10;;
25637;SDS011;13496;51.040;13.680;2023-02-22T06:22:19;3.30;;;1.50;;
25637;SDS011;13496;51.040;13.680;2023-02-22T06:27:21;1.83;;;1.60;;
25637;SDS011;13496;51.040;13.680;2023-02-22T06:32:22;1.30;;;1.20;;
25637;SDS011;13496;51.040;13.680;2023-02-22T06:37:24;2.43;;;1.30;;
25637;SDS011;13496;51.040;13.680;2023-02-22T06:42:26;1.30;;;1.20;;
25637;SDS011;13496;51.040;13.680;2023-02-22T06:47:27;1.90;;;1.47;;
25637;SDS011;13496;51.040;13.680;2023-02-22T06:52:29;1.50;;;1.40;;
25637;SDS011;13496;51.040;13.680;2023-02-22T06:57:31;1.27;;;1.17;;
25637;SDS011;13496;51.040;13.680;2023-02-22T07:02:32;1.87;;;1.60;;
25637;SDS011;13496;51.040;13.680;2023-02-22T07:07:34;1.50;;;1.40;;
25637;SDS011;13496;51.040;13.680;2023-02-22T07:12:35;1.40;;;1.30;;
25637;SDS011;13496;51.040;13.680;2023-02-22T07:17:37;1.10;;;1.10;;
25637;SDS011;13496;51.040;13.680;2023-02-22T07:22:41;1.50;;;1.40;;
25637;SDS011;13496;51.040;13.680;2023-02-22T07:27:43;1.33;;;1.23;;
25637;SDS011;13496;51.040;13.680;2023-02-22T07:32:44;1.70;;;1.40;;
25637;SDS011;13496;51.040;13.680;2023-02-22T07:37:47;1.38;;;1.27;;
25637;SDS011;13496;51.040;13.680;2023-02-22T07:42:49;1.60;;;1.50;;
25637;SDS011;13496;51.040;13.680;2023-02-22T07:48:00;1.57;;;1.47;;
25637;SDS011;13496;51.040;13.680;2023-02-22T07:53:04;1.33;;;1.23;;
25637;SDS011;13496;51.040;13.680;2023-02-22T07:58:08;1.87;;;1.60;;
25637;SDS011;13496;51.040;13.680;2023-02-22T08:03:11;1.33;;;1.23;;
25637;SDS011;13496;51.040;13.680;2023-02-22T08:08:14;1.50;;;1.40;;
25637;SDS011;13496;51.040;13.680;2023-02-22T08:13:19;1.70;;;1.60;;
25637;SDS011;13496;51.040;13.680;2023-02-22T08:18:23;2.00;;;1.55;;
25637;SDS011;13496;51.040;13.680;2023-02-22T08:23:25;1.70;;;1.60;;
25637;SDS011;13496;51.040;13.680;2023-02-22T08:28:27;1.50;;;1.40;;
25637;SDS011;13496;51.040;13.680;2023-02-22T08:33:28;1.70;;;1.60;;
25637;SDS011;13496;51.040;13.680;2023-02-22T08:38:30;1.97;;;1.80;;
25637;SDS011;13496;51.040;13.680;2023-02-22T08:43:34;1.60;;;1.50;;
25637;SDS011;13496;51.040;13.680;2023-02-22T08:48:35;3.00;;;1.70;;
25637;SDS011;13496;51.040;13.680;2023-02-22T08:53:37;1.65;;;1.55;;
25637;SDS011;13496;51.040;13.680;2023-02-22T08:58:39;1.90;;;1.55;;
25637;SDS011;13496;51.040;13.680;2023-02-22T09:03:40;1.90;;;1.45;;
25637;SDS011;13496;51.040;13.680;2023-02-22T09:08:42;2.30;;;1.50;;
25637;SDS011;13496;51.040;13.680;2023-02-22T09:13:43;1.50;;;1.40;;
25637;SDS011;13496;51.040;13.680;2023-02-22T09:18:45;1.77;;;1.67;;
25637;SDS011;13496;51.040;13.680;2023-02-22T09:23:48;1.95;;;1.38;;
25637;SDS011;13496;51.040;13.680;2023-02-22T09:28:49;1.80;;;1.70;;
25637;SDS011;13496;51.040;13.680;2023-02-22T09:33:51;1.40;;;1.30;;
25637;SDS011;13496;51.040;13.680;2023-02-22T09:38:52;1.70;;;1.60;;
25637;SDS011;13496;51.040;13.680;2023-02-22T09:44:04;1.42;;;1.33;;
25637;SDS011;13496;51.040;13.680;2023-02-22T09:54:23;1.45;;;1.35;;
25637;SDS011;13496;51.040;13.680;2023-02-22T09:59:36;1.40;;;1.30;;
25637;SDS011;13496;51.040;13.680;2023-02-22T10:04:47;1.40;;;1.30;;
25637;SDS011;13496;51.040;13.680;2023-02-22T10:09:50;1.70;;;1.60;;
25637;SDS011;13496;51.040;13.680;2023-02-22T10:15:58;1.50;;;1.40;;
25637;SDS011;13496;51.040;13.680;2023-02-22T10:20:56;1.60;;;1.50;;
25637;SDS011;13496;51.040;13.680;2023-02-22T10:31:16;1.80;;;1.50;;
25637;SDS011;13496;51.040;13.680;2023-02-22T10:36:23;1.42;;;1.33;;
25637;SDS011;13496;51.040;13.680;2023-02-22T10:41:30;1.35;;;1.25;;
25637;SDS011;13496;51.040;13.680;2023-02-22T10:46:33;1.30;;;1.20;;
25637;SDS011;13496;51.040;13.680;2023-02-22T10:51:35;1.60;;;1.50;;
25637;SDS011;13496;51.040;13.680;2023-02-22T10:56:45;2.42;;;1.50;;
25637;SDS011;13496;51.040;13.680;2023-02-22T11:01:48;1.37;;;1.27;;
25637;SDS011;13496;51.040;13.680;2023-02-22T11:07:07;1.50;;;1.40;;
25637;SDS011;13496;51.040;13.680;2023-02-22T11:12:16;1.70;;;1.60;;
25637;SDS011;13496;51.040;13.680;2023-02-22T11:17:28;1.95;;;1.60;;
25637;SDS011;13496;51.040;13.680;2023-02-22T11:22:36;1.33;;;1.23;;
25637;SDS011;13496;51.040;13.680;2023-02-22T11:27:42;2.58;;;1.67;;
25637;SDS011;13496;51.040;13.680;2023-02-22T11:38:09;1.50;;;1.40;;
25637;SDS011;13496;51.040;13.680;2023-02-22T11:43:25;1.63;;;1.52;;
25637;SDS011;13496;51.040;13.680;2023-02-22T11:48:28;1.48;;;1.38;;
25637;SDS011;13496;51.040;13.680;2023-02-22T12:00:11;1.73;;;1.63;;
25637;SDS011;13496;51.040;13.680;2023-02-22T12:10:56;1.70;;;1.60;;
25637;SDS011;13496;51.040;13.680;2023-02-22T12:21:39;1.50;;;1.40;;
25637;SDS011;13496;51.040;13.680;2023-02-22T12:26:47;1.55;;;1.45;;
25637;SDS011;13496;51.040;13.680;2023-02-22T12:37:21;1.33;;;1.23;;
25637;SDS011;13496;51.040;13.680;2023-02-22T12:42:33;1.50;;;1.40;;
25637;SDS011;13496;51.040;13.680;2023-02-22T12:53:31;2.50;;;1.52;;
25637;SDS011;13496;51.040;13.680;2023-02-22T12:58:38;1.50;;;1.40;;
25637;SDS011;13496;51.040;13.680;2023-02-22T13:03:49;1.40;;;1.30;;
25637;SDS011;13496;51.040;13.680;2023-02-22T13:08:55;1.48;;;1.38;;
25637;SDS011;13496;51.040;13.680;2023-02-22T13:14:15;1.63;;;1.42;;
25637;SDS011;13496;51.040;13.680;2023-02-22T13:24:57;1.80;;;1.70;;
25637;SDS011;13496;51.040;13.680;2023-02-22T13:30:12;1.60;;;1.50;;
25637;SDS011;13496;51.040;13.680;2023-02-22T13:35:26;1.70;;;1.60;;
25637;SDS011;13496;51.040;13.680;2023-02-22T13:40:51;1.65;;;1.55;;
25637;SDS011;13496;51.040;13.680;2023-02-22T13:46:12;1.48;;;1.38;;
25637;SDS011;13496;51.040;13.680;2023-02-22T13:56:56;1.60;;;1.50;;
25637;SDS011;13496;51.040;13.680;2023-02-22T14:01:59;1.40;;;1.30;;
25637;SDS011;13496;51.040;13.680;2023-02-22T14:17:30;1.75;;;1.65;;
25637;SDS011;13496;51.040;13.680;2023-02-22T14:22:33;9.00;;;2.28;;
25637;SDS011;13496;51.040;13.680;2023-02-22T14:27:38;8.07;;;2.30;;
25637;SDS011;13496;51.040;13.680;2023-02-22T14:32:41;7.40;;;2.10;;
25637;SDS011;13496;51.040;13.680;2023-02-22T14:37:42;8.00;;;1.92;;
25637;SDS011;13496;51.040;13.680;2023-02-22T14:43:04;2.50;;;1.50;;
25637;SDS011;13496;51.040;13.680;2023-02-22T14:53:43;2.70;;;1.60;;
25637;SDS011;13496;51.040;13.680;2023-02-22T14:58:57;2.10;;;1.83;;
25637;SDS011;13496;51.040;13.680;2023-02-22T15:04:19;3.58;;;1.50;;
25637;SDS011;13496;51.040;13.680;2023-02-22T15:09:22;4.38;;;1.90;;
25637;SDS011;13496;51.040;13.680;2023-02-22T15:14:26;2.10;;;1.77;;
25637;SDS011;13496;51.040;13.680;2023-02-22T15:19:31;2.35;;;1.55;;
25637;SDS011;13496;51.040;13.680;2023-02-22T15:24:36;1.67;;;1.50;;
25637;SDS011;13496;51.040;13.680;2023-02-22T15:29:38;1.83;;;1.60;;
25637;SDS011;13496;51.040;13.680;2023-02-22T15:34:45;1.73;;;1.60;;
25637;SDS011;13496;51.040;13.680;2023-02-22T15:39:47;2.53;;;1.53;;
25637;SDS011;13496;51.040;13.680;2023-02-22T15:44:50;2.73;;;1.70;;
25637;SDS011;13496;51.040;13.680;2023-02-22T15:55:16;3.60;;;1.67;;
25637;SDS011;13496;51.040;13.680;2023-02-22T16:00:27;1.60;;;1.50;;
25637;SDS011;13496;51.040;13.680;2023-02-22T16:05:41;1.65;;;1.50;;
25637;SDS011;13496;51.040;13.680;2023-02-22T16:10:48;2.17;;;1.77;;
25637;SDS011;13496;51.040;13.680;2023-02-22T16:15:58;1.77;;;1.67;;
25637;SDS011;13496;51.040;13.680;2023-02-22T16:21:03;1.60;;;1.50;;
25637;SDS011;13496;51.040;13.680;2023-02-22T16:26:15;1.75;;;1.63;;
25637;SDS011;13496;51.040;13.680;2023-02-22T16:31:35;1.77;;;1.67;;
25637;SDS011;13496;51.040;13.680;2023-02-22T16:36:43;1.67;;;1.58;;
25637;SDS011;13496;51.040;13.680;2023-02-22T16:41:47;4.15;;;1.95;;
25637;SDS011;13496;51.040;13.680;2023-02-22T16:46:55;1.70;;;1.60;;
25637;SDS011;13496;51.040;13.680;2023-02-22T16:51:59;2.73;;;1.63;;
25637;SDS011;13496;51.040;13.680;2023-02-22T16:57:02;1.93;;;1.50;;
25637;SDS011;13496;51.040;13.680;2023-02-22T17:02:05;2.97;;;1.90;;
25637;SDS011;13496;51.040;13.680;2023-02-22T17:07:12;3.57;;;1.90;;
25637;SDS011;13496;51.040;13.680;2023-02-22T17:12:14;2.17;;;1.77;;
25637;SDS011;13496;51.040;13.680;2023-02-22T17:17:16;3.53;;;1.63;;
25637;SDS011;13496;51.040;13.680;2023-02-22T17:22:18;1.70;;;1.60;;
25637;SDS011;13496;51.040;13.680;2023-02-22T17:27:22;2.90;;;1.87;;
25637;SDS011;13496;51.040;13.680;2023-02-22T17:32:23;2.10;;;1.90;;
25637;SDS011;13496;51.040;13.680;2023-02-22T17:37:25;2.83;;;1.60;;
25637;SDS011;13496;51.040;13.680;2023-02-22T17:42:27;2.00;;;1.90;;
25637;SDS011;13496;51.040;13.680;2023-02-22T17:47:28;2.55;;;2.28;;
25637;SDS011;13496;51.040;13.680;2023-02-22T17:52:33;2.08;;;1.83;;
25637;SDS011;13496;51.040;13.680;2023-02-22T17:57:34;2.55;;;1.80;;
25637;SDS011;13496;51.040;13.680;2023-02-22T18:02:37;2.00;;;1.80;;
25637;SDS011;13496;51.040;13.680;2023-02-22T18:07:39;3.15;;;1.77;;
25637;SDS011;13496;51.040;13.680;2023-02-22T18:12:41;2.13;;;1.80;;
25637;SDS011;13496;51.040;13.680;2023-02-22T18:17:43;2.58;;;1.80;;
25637;SDS011;13496;51.040;13.680;2023-02-22T18:22:46;2.92;;;1.95;;
25637;SDS011;13496;51.040;13.680;2023-02-22T18:27:48;3.20;;;1.85;;
25637;SDS011;13496;51.040;13.680;2023-02-22T18:32:50;3.03;;;1.75;;
25637;SDS011;13496;51.040;13.680;2023-02-22T18:37:52;2.57;;;1.90;;
25637;SDS011;13496;51.040;13.680;2023-02-22T18:42:53;1.90;;;1.80;;
25637;SDS011;13496;51.040;13.680;2023-02-22T18:47:55;2.25;;;1.83;;
25637;SDS011;13496;51.040;13.680;2023-02-22T18:52:57;1.80;;;1.70;;
25637;SDS011;13496;51.040;13.680;2023-02-22T18:57:58;2.30;;;2.03;;
25637;SDS011;13496;51.040;13.680;2023-02-22T19:03:02;2.57;;;2.17;;
25637;SDS011;13496;51.040;13.680;2023-02-22T19:08:06;3.35;;;1.92;;
25637;SDS011;13496;51.040;13.680;2023-02-22T19:13:11;2.67;;;2.00;;
25637;SDS011;13496;51.040;13.680;2023-02-22T19:18:13;2.92;;;2.10;;
25637;SDS011;13496;51.040;13.680;2023-02-22T19:23:14;2.22;;;1.90;;
25637;SDS011;13496;51.040;13.680;2023-02-22T19:28:16;2.75;;;2.05;;
25637;SDS011;13496;51.040;13.680;2023-02-22T19:33:18;2.30;;;2.03;;
25637;SDS011;13496;51.040;13.680;2023-02-22T19:38:20;2.72;;;2.03;;
25637;SDS011;13496;51.040;13.680;2023-02-22T19:43:21;3.70;;;2.03;;
25637;SDS011;13496;51.040;13.680;2023-02-22T19:48:23;2.95;;;2.30;;
25637;SDS011;13496;51.040;13.680;2023-02-22T19:53:25;2.72;;;2.38;;
25637;SDS011;13496;51.040;13.680;2023-02-22T19:58:26;3.13;;;2.30;;
25637;SDS011;13496;51.040;13.680;2023-02-22T20:03:29;4.47;;;2.60;;
25637;SDS011;13496;51.040;13.680;2023-02-22T20:08:35;2.47;;;2.13;;
25637;SDS011;13496;51.040;13.680;2023-02-22T20:13:42;2.50;;;2.30;;
25637;SDS011;13496;51.040;13.680;2023-02-22T20:18:44;3.33;;;2.42;;
25637;SDS011;13496;51.040;13.680;2023-02-22T20:23:46;3.85;;;2.40;;
25637;SDS011;13496;51.040;13.680;2023-02-22T20:28:49;3.15;;;2.35;;
25637;SDS011;13496;51.040;13.680;2023-02-22T20:33:52;3.30;;;2.40;;
25637;SDS011;13496;51.040;13.680;2023-02-22T20:38:57;4.53;;;2.30;;
25637;SDS011;13496;51.040;13.680;2023-02-22T20:44:00;3.13;;;2.53;;
25637;SDS011;13496;51.040;13.680;2023-02-22T20:49:04;3.63;;;2.38;;
25637;SDS011;13496;51.040;13.680;2023-02-22T20:54:08;3.20;;;2.47;;
25637;SDS011;13496;51.040;13.680;2023-02-22T20:59:13;2.65;;;2.42;;
25637;SDS011;13496;51.040;13.680;2023-02-22T21:04:16;7.07;;;2.50;;
25637;SDS011;13496;51.040;13.680;2023-02-22T21:09:19;2.47;;;2.10;;
25637;SDS011;13496;51.040;13.680;2023-02-22T21:14:21;4.37;;;2.57;;
25637;SDS011;13496;51.040;13.680;2023-02-22T21:19:24;3.25;;;2.65;;
25637;SDS011;13496;51.040;13.680;2023-02-22T21:24:26;4.55;;;2.60;;
25637;SDS011;13496;51.040;13.680;2023-02-22T21:29:29;6.57;;;2.90;;
25637;SDS011;13496;51.040;13.680;2023-02-22T21:34:30;5.85;;;2.42;;
25637;SDS011;13496;51.040;13.680;2023-02-22T21:39:32;2.80;;;2.10;;
25637;SDS011;13496;51.040;13.680;2023-02-22T21:44:34;3.15;;;2.50;;
25637;SDS011;13496;51.040;13.680;2023-02-22T21:49:35;3.10;;;2.10;;
25637;SDS011;13496;51.040;13.680;2023-02-22T21:54:38;2.42;;;2.20;;
25637;SDS011;13496;51.040;13.680;2023-02-22T21:59:39;3.13;;;2.38;;
25637;SDS011;13496;51.040;13.680;2023-02-22T22:04:41;3.17;;;2.20;;
25637;SDS011;13496;51.040;13.680;2023-02-22T22:09:43;3.50;;;2.55;;
25637;SDS011;13496;51.040;13.680;2023-02-22T22:14:44;2.85;;;2.20;;
25637;SDS011;13496;51.040;13.680;2023-02-22T22:19:46;4.13;;;2.63;;
25637;SDS011;13496;51.040;13.680;2023-02-22T22:24:49;2.70;;;2.40;;
25637;SDS011;13496;51.040;13.680;2023-02-22T22:29:50;2.87;;;2.37;;
25637;SDS011;13496;51.040;13.680;2023-02-22T22:34:57;2.93;;;2.40;;
25637;SDS011;13496;51.040;13.680;2023-02-22T22:40:01;3.45;;;2.53;;
25637;SDS011;13496;51.040;13.680;2023-02-22T22:45:05;2.97;;;2.67;;
25637;SDS011;13496;51.040;13.680;2023-02-22T22:50:14;3.23;;;2.80;;
25637;SDS011;13496;51.040;13.680;2023-02-22T22:55:19;3.97;;;2.83;;
25637;SDS011;13496;51.040;13.680;2023-02-22T23:00:24;2.50;;;2.30;;
25637;SDS011;13496;51.040;13.680;2023-02-22T23:05:39;2.60;;;2.38;;
25637;SDS011;13496;51.040;13.680;2023-02-22T23:10:42;2.87;;;2.67;;
25637;SDS011;13496;51.040;13.680;2023-02-22T23:15:44;4.10;;;3.10;;
25637;SDS011;13496;51.040;13.680;2023-02-22T23:20:48;2.80;;;2.50;;
25637;SDS011;13496;51.040;13.680;2023-02-22T23:31:12;3.00;;;2.63;;
25637;SDS011;13496;51.040;13.680;2023-02-22T23:36:16;3.30;;;2.83;;
25637;SDS011;13496;51.040;13.680;2023-02-22T23:41:19;2.80;;;2.60;;
25637;SDS011;13496;51.040;13.680;2023-02-22T23:46:21;3.50;;;2.75;;
25637;SDS011;13496;51.040;13.680;2023-02-22T23:51:22;2.83;;;2.53;;
25637;SDS011;13496;51.040;13.680;2023-02-22T23:56:27;2.90;;;2.70;;
